sensor_id;sensor_type;location;lat;lon;timestamp;temperature;humidity
1165;DHT22;571;50.930;6.926;2022-07-23T04:03:06;17.80;99.90
1165;DHT22;571;50.930;6.926;2022-07-23T04:05:32;17.80;99.90
1165;DHT22;571;50.930;6.926;2022-07-23T04:07:59;17.80;99.90
1165;DHT22;571;50.930;6.926;2022-07-23T04:10:26;17.80;99.90
1165;DHT22;571;50.930;6.926;2022-07-23T04:12:52;17.80;99.90
1165;DHT22;571;50.930;6.926;2022-07-23T04:15:19;17.70;99.90
1165;DHT22;571;50.930;6.926;2022-07-23T04:17:46;17.70;99.90
1165;DHT22;571;50.930;6.926;2022-07-23T04:20:14;17.80;99.90
1165;DHT22;571;50.930;6.926;2022-07-23T04:22:41;17.70;99.90
1165;DHT22;571;50.930;6.926;2022-07-23T04:25:08;17.70;99.90
1165;DHT22;571;50.930;6.926;2022-07-23T04:27:35;17.60;99.90
1165;DHT22;571;50.930;6.926;2022-07-23T04:30:02;17.70;99.90
1165;DHT22;571;50.930;6.926;2022-07-23T04:32:29;17.70;99.90
1165;DHT22;571;50.930;6.926;2022-07-23T04:34:55;17.70;99.90
1165;DHT22;571;50.930;6.926;2022-07-23T04:37:23;17.80;99.90
1165;DHT22;571;50.930;6.926;2022-07-23T04:39:50;17.70;99.90
1165;DHT22;571;50.930;6.926;2022-07-23T04:42:17;17.80;99.90
1165;DHT22;571;50.930;6.926;2022-07-23T04:44:44;17.90;99.90
1165;DHT22;571;50.930;6.926;2022-07-23T04:47:10;17.80;99.90
1165;DHT22;571;50.930;6.926;2022-07-23T04:49:37;18.00;99.90
1165;DHT22;571;50.930;6.926;2022-07-23T04:52:04;17.90;99.90
1165;DHT22;571;50.930;6.926;2022-07-23T04:54:32;17.90;99.90
1165;DHT22;571;50.930;6.926;2022-07-23T04:56:59;17.90;99.90
1165;DHT22;571;50.930;6.926;2022-07-23T04:59:25;17.90;99.90
1165;DHT22;571;50.930;6.926;2022-07-23T05:01:52;17.90;99.90
1165;DHT22;571;50.930;6.926;2022-07-23T05:04:19;18.00;99.90
1165;DHT22;571;50.930;6.926;2022-07-23T05:06:46;18.00;99.90
1165;DHT22;571;50.930;6.926;2022-07-23T05:09:12;17.90;99.90
1165;DHT22;571;50.930;6.926;2022-07-23T05:11:40;17.90;99.90
1165;DHT22;571;50.930;6.926;2022-07-23T05:14:07;17.80;99.90
1165;DHT22;571;50.930;6.926;2022-07-23T05:16:34;17.70;99.90
1165;DHT22;571;50.930;6.926;2022-07-23T05:19:01;17.70;99.90
1165;DHT22;571;50.930;6.926;2022-07-23T05:21:27;17.80;99.90
1165;DHT22;571;50.930;6.926;2022-07-23T05:23:54;18.00;99.90
1165;DHT22;571;50.930;6.926;2022-07-23T05:26:21;18.10;99.90
1165;DHT22;571;50.930;6.926;2022-07-23T05:28:49;18.00;99.90
1165;DHT22;571;50.930;6.926;2022-07-23T05:31:16;18.10;99.90
1165;DHT22;571;50.930;6.926;2022-07-23T05:33:43;18.30;99.90
1165;DHT22;571;50.930;6.926;2022-07-23T05:36:10;18.30;99.90
1165;DHT22;571;50.930;6.926;2022-07-23T05:38:37;18.40;99.90
1165;DHT22;571;50.930;6.926;2022-07-23T05:41:04;18.50;99.90
1165;DHT22;571;50.930;6.926;2022-07-23T05:43:30;18.50;99.90
1165;DHT22;571;50.930;6.926;2022-07-23T05:45:58;18.60;99.90
1165;DHT22;571;50.930;6.926;2022-07-23T05:48:25;18.50;99.90
1165;DHT22;571;50.930;6.926;2022-07-23T05:50:52;18.60;99.90
1165;DHT22;571;50.930;6.926;2022-07-23T05:53:19;18.80;99.90
1165;DHT22;571;50.930;6.926;2022-07-23T05:55:46;18.80;99.90
1165;DHT22;571;50.930;6.926;2022-07-23T05:58:12;18.80;99.90
1165;DHT22;571;50.930;6.926;2022-07-23T06:00:39;18.70;99.90
1165;DHT22;571;50.930;6.926;2022-07-23T06:03:08;18.70;99.90
1165;DHT22;571;50.930;6.926;2022-07-23T06:05:34;18.70;99.90
1165;DHT22;571;50.930;6.926;2022-07-23T06:08:01;18.70;99.90
1165;DHT22;571;50.930;6.926;2022-07-23T06:10:28;18.80;99.90
1165;DHT22;571;50.930;6.926;2022-07-23T06:12:55;18.90;99.90
1165;DHT22;571;50.930;6.926;2022-07-23T06:15:22;18.90;99.90
1165;DHT22;571;50.930;6.926;2022-07-23T06:17:48;18.90;99.90
1165;DHT22;571;50.930;6.926;2022-07-23T06:20:16;18.90;99.90
1165;DHT22;571;50.930;6.926;2022-07-23T06:22:43;19.10;99.90
1165;DHT22;571;50.930;6.926;2022-07-23T06:25:10;19.20;99.90
1165;DHT22;571;50.930;6.926;2022-07-23T06:27:37;19.20;99.90
1165;DHT22;571;50.930;6.926;2022-07-23T06:30:04;19.10;99.90
1165;DHT22;571;50.930;6.926;2022-07-23T06:32:33;18.90;99.90
1165;DHT22;571;50.930;6.926;2022-07-23T06:35:00;19.00;99.90
1165;DHT22;571;50.930;6.926;2022-07-23T06:37:28;19.10;99.90
1165;DHT22;571;50.930;6.926;2022-07-23T06:39:55;19.20;99.90
1165;DHT22;571;50.930;6.926;2022-07-23T06:42:21;19.30;99.90
1165;DHT22;571;50.930;6.926;2022-07-23T06:44:48;19.30;99.90
1165;DHT22;571;50.930;6.926;2022-07-23T06:47:15;19.20;99.90
1165;DHT22;571;50.930;6.926;2022-07-23T06:49:42;19.20;99.90
1165;DHT22;571;50.930;6.926;2022-07-23T06:52:08;19.20;99.90
1165;DHT22;571;50.930;6.926;2022-07-23T06:54:36;19.30;99.90
1165;DHT22;571;50.930;6.926;2022-07-23T06:57:03;19.60;99.90
1165;DHT22;571;50.930;6.926;2022-07-23T06:59:30;19.70;99.90
1165;DHT22;571;50.930;6.926;2022-07-23T07:01:57;19.50;99.90
1165;DHT22;571;50.930;6.926;2022-07-23T07:04:24;19.60;99.90
1165;DHT22;571;50.930;6.926;2022-07-23T07:06:50;19.60;99.90
1165;DHT22;571;50.930;6.926;2022-07-23T07:09:17;19.70;99.90
1165;DHT22;571;50.930;6.926;2022-07-23T07:11:45;19.70;99.90
1165;DHT22;571;50.930;6.926;2022-07-23T07:14:12;19.80;99.90
1165;DHT22;571;50.930;6.926;2022-07-23T07:16:39;20.00;99.90
1165;DHT22;571;50.930;6.926;2022-07-23T07:19:06;20.10;99.90
1165;DHT22;571;50.930;6.926;2022-07-23T07:21:32;20.10;99.90
1165;DHT22;571;50.930;6.926;2022-07-23T07:23:59;20.10;99.90
1165;DHT22;571;50.930;6.926;2022-07-23T07:26:26;20.20;99.90
1165;DHT22;571;50.930;6.926;2022-07-23T07:28:54;20.20;99.90
1165;DHT22;571;50.930;6.926;2022-07-23T07:31:21;20.30;99.90
1165;DHT22;571;50.930;6.926;2022-07-23T07:33:48;20.40;99.90
1165;DHT22;571;50.930;6.926;2022-07-23T07:36:15;20.40;99.90
1165;DHT22;571;50.930;6.926;2022-07-23T07:38:41;20.40;99.90
1165;DHT22;571;50.930;6.926;2022-07-23T07:41:08;20.40;99.90
1165;DHT22;571;50.930;6.926;2022-07-23T07:43:35;20.50;99.90
1165;DHT22;571;50.930;6.926;2022-07-23T07:46:04;20.60;99.70
1165;DHT22;571;50.930;6.926;2022-07-23T07:48:32;20.70;99.60
1165;DHT22;571;50.930;6.926;2022-07-23T07:50:59;20.70;99.90
1165;DHT22;571;50.930;6.926;2022-07-23T07:53:25;20.70;99.90
1165;DHT22;571;50.930;6.926;2022-07-23T07:55:52;20.80;99.90
1165;DHT22;571;50.930;6.926;2022-07-23T07:58:19;20.90;99.80
1165;DHT22;571;50.930;6.926;2022-07-23T08:00:46;20.90;99.70
1165;DHT22;571;50.930;6.926;2022-07-23T08:03:20;20.70;99.90
1165;DHT22;571;50.930;6.926;2022-07-23T08:05:47;20.60;99.90
1165;DHT22;571;50.930;6.926;2022-07-23T08:08:14;20.70;99.90
1165;DHT22;571;50.930;6.926;2022-07-23T08:10:41;20.80;99.40
1165;DHT22;571;50.930;6.926;2022-07-23T08:13:12;21.00;98.90
1165;DHT22;571;50.930;6.926;2022-07-23T08:15:39;21.10;99.30
1165;DHT22;571;50.930;6.926;2022-07-23T08:18:07;21.20;98.10
1165;DHT22;571;50.930;6.926;2022-07-23T08:20:35;21.30;98.40
1165;DHT22;571;50.930;6.926;2022-07-23T08:23:05;21.40;97.80
1165;DHT22;571;50.930;6.926;2022-07-23T08:25:33;21.50;99.10
1165;DHT22;571;50.930;6.926;2022-07-23T08:28:01;21.60;97.80
1165;DHT22;571;50.930;6.926;2022-07-23T08:30:29;21.70;96.60
1165;DHT22;571;50.930;6.926;2022-07-23T08:32:58;21.80;97.70
1165;DHT22;571;50.930;6.926;2022-07-23T08:35:29;21.90;97.30
1165;DHT22;571;50.930;6.926;2022-07-23T08:37:58;22.00;97.80
1165;DHT22;571;50.930;6.926;2022-07-23T08:40:27;22.40;95.80
1165;DHT22;571;50.930;6.926;2022-07-23T08:42:54;22.40;96.70
1165;DHT22;571;50.930;6.926;2022-07-23T08:45:22;22.50;96.10
1165;DHT22;571;50.930;6.926;2022-07-23T08:47:50;22.60;96.00
1165;DHT22;571;50.930;6.926;2022-07-23T08:50:18;22.60;95.80
1165;DHT22;571;50.930;6.926;2022-07-23T08:52:45;22.70;95.10
1165;DHT22;571;50.930;6.926;2022-07-23T08:55:16;22.70;95.40
1165;DHT22;571;50.930;6.926;2022-07-23T08:57:43;22.70;95.10
1165;DHT22;571;50.930;6.926;2022-07-23T09:00:11;22.70;94.60
1165;DHT22;571;50.930;6.926;2022-07-23T09:02:39;22.70;95.50
1165;DHT22;571;50.930;6.926;2022-07-23T09:05:07;22.60;95.70
1165;DHT22;571;50.930;6.926;2022-07-23T09:07:34;22.50;95.90
1165;DHT22;571;50.930;6.926;2022-07-23T09:10:08;22.50;94.30
1165;DHT22;571;50.930;6.926;2022-07-23T09:12:37;22.70;94.70
1165;DHT22;571;50.930;6.926;2022-07-23T09:15:06;22.70;93.50
1165;DHT22;571;50.930;6.926;2022-07-23T09:17:37;22.60;94.60
1165;DHT22;571;50.930;6.926;2022-07-23T09:20:09;22.60;94.40
1165;DHT22;571;50.930;6.926;2022-07-23T09:22:36;22.60;95.00
1165;DHT22;571;50.930;6.926;2022-07-23T09:25:08;22.70;95.20
1165;DHT22;571;50.930;6.926;2022-07-23T09:27:51;22.80;94.30
1165;DHT22;571;50.930;6.926;2022-07-23T09:30:19;22.90;93.20
1165;DHT22;571;50.930;6.926;2022-07-23T09:33:08;22.90;94.40
1165;DHT22;571;50.930;6.926;2022-07-23T09:35:47;23.10;93.50
1165;DHT22;571;50.930;6.926;2022-07-23T09:38:14;23.10;93.50
1165;DHT22;571;50.930;6.926;2022-07-23T09:40:41;23.10;94.10
1165;DHT22;571;50.930;6.926;2022-07-23T09:43:09;23.10;92.70
1165;DHT22;571;50.930;6.926;2022-07-23T09:45:36;23.20;92.70
1165;DHT22;571;50.930;6.926;2022-07-23T09:48:12;23.30;92.80
1165;DHT22;571;50.930;6.926;2022-07-23T09:50:40;23.30;92.20
1165;DHT22;571;50.930;6.926;2022-07-23T09:53:07;23.40;91.50
1165;DHT22;571;50.930;6.926;2022-07-23T09:55:35;23.50;91.90
1165;DHT22;571;50.930;6.926;2022-07-23T09:58:04;23.20;91.90
1165;DHT22;571;50.930;6.926;2022-07-23T10:00:34;23.40;92.80
1165;DHT22;571;50.930;6.926;2022-07-23T10:03:01;23.50;92.00
1165;DHT22;571;50.930;6.926;2022-07-23T10:05:29;23.40;92.80
1165;DHT22;571;50.930;6.926;2022-07-23T10:07:58;23.50;92.70
1165;DHT22;571;50.930;6.926;2022-07-23T10:10:28;23.50;91.80
1165;DHT22;571;50.930;6.926;2022-07-23T10:12:56;23.60;91.20
1165;DHT22;571;50.930;6.926;2022-07-23T10:15:53;23.50;90.10
1165;DHT22;571;50.930;6.926;2022-07-23T10:18:20;23.60;90.80
1165;DHT22;571;50.930;6.926;2022-07-23T10:20:48;23.70;90.30
1165;DHT22;571;50.930;6.926;2022-07-23T10:23:20;23.70;90.40
1165;DHT22;571;50.930;6.926;2022-07-23T10:25:54;23.70;90.90
1165;DHT22;571;50.930;6.926;2022-07-23T10:28:48;23.80;91.20
1165;DHT22;571;50.930;6.926;2022-07-23T10:31:35;23.70;90.70
1165;DHT22;571;50.930;6.926;2022-07-23T10:34:14;23.90;90.50
1165;DHT22;571;50.930;6.926;2022-07-23T10:36:47;24.00;88.80
1165;DHT22;571;50.930;6.926;2022-07-23T10:39:19;24.10;88.30
1165;DHT22;571;50.930;6.926;2022-07-23T10:41:46;24.30;89.30
1165;DHT22;571;50.930;6.926;2022-07-23T10:44:15;24.30;87.40
1165;DHT22;571;50.930;6.926;2022-07-23T10:46:56;24.50;87.00
1165;DHT22;571;50.930;6.926;2022-07-23T10:49:30;24.50;87.10
1165;DHT22;571;50.930;6.926;2022-07-23T10:52:22;24.50;87.50
1165;DHT22;571;50.930;6.926;2022-07-23T10:54:51;24.70;87.20
1165;DHT22;571;50.930;6.926;2022-07-23T10:57:19;24.80;90.90
1165;DHT22;571;50.930;6.926;2022-07-23T11:00:12;25.00;87.90
1165;DHT22;571;50.930;6.926;2022-07-23T11:02:41;25.30;85.10
1165;DHT22;571;50.930;6.926;2022-07-23T11:05:09;25.40;85.70
1165;DHT22;571;50.930;6.926;2022-07-23T11:10:56;25.70;85.90
1165;DHT22;571;50.930;6.926;2022-07-23T11:16:25;26.50;82.70
1165;DHT22;571;50.930;6.926;2022-07-23T11:19:14;26.70;84.00
1165;DHT22;571;50.930;6.926;2022-07-23T11:21:43;27.20;73.80
1165;DHT22;571;50.930;6.926;2022-07-23T11:24:12;27.70;75.60
1165;DHT22;571;50.930;6.926;2022-07-23T11:26:44;27.60;69.80
1165;DHT22;571;50.930;6.926;2022-07-23T11:29:43;27.90;71.10
1165;DHT22;571;50.930;6.926;2022-07-23T11:32:29;27.90;68.00
1165;DHT22;571;50.930;6.926;2022-07-23T11:34:57;27.70;63.40
1165;DHT22;571;50.930;6.926;2022-07-23T11:37:33;27.90;70.70
1165;DHT22;571;50.930;6.926;2022-07-23T11:40:01;28.30;68.70
1165;DHT22;571;50.930;6.926;2022-07-23T11:42:27;28.50;62.40
1165;DHT22;571;50.930;6.926;2022-07-23T11:44:54;28.20;66.40
1165;DHT22;571;50.930;6.926;2022-07-23T11:47:23;28.60;68.90
1165;DHT22;571;50.930;6.926;2022-07-23T11:49:54;28.60;67.90
1165;DHT22;571;50.930;6.926;2022-07-23T11:52:23;29.00;65.60
1165;DHT22;571;50.930;6.926;2022-07-23T11:54:53;28.90;71.20
1165;DHT22;571;50.930;6.926;2022-07-23T11:57:23;29.00;63.90
1165;DHT22;571;50.930;6.926;2022-07-23T11:59:54;29.20;64.00
1165;DHT22;571;50.930;6.926;2022-07-23T12:02:22;29.40;57.90
1165;DHT22;571;50.930;6.926;2022-07-23T12:04:50;29.70;62.90
1165;DHT22;571;50.930;6.926;2022-07-23T12:09:56;29.70;62.50
1165;DHT22;571;50.930;6.926;2022-07-23T12:12:23;30.00;58.50
1165;DHT22;571;50.930;6.926;2022-07-23T12:14:52;29.90;57.90
1165;DHT22;571;50.930;6.926;2022-07-23T12:17:19;30.10;56.70
1165;DHT22;571;50.930;6.926;2022-07-23T12:19:47;30.40;54.80
1165;DHT22;571;50.930;6.926;2022-07-23T12:22:14;30.80;55.50
1165;DHT22;571;50.930;6.926;2022-07-23T12:24:56;31.50;51.80
1165;DHT22;571;50.930;6.926;2022-07-23T12:27:23;31.40;50.70
1165;DHT22;571;50.930;6.926;2022-07-23T12:29:50;31.20;53.60
1165;DHT22;571;50.930;6.926;2022-07-23T12:32:19;31.40;51.10
1165;DHT22;571;50.930;6.926;2022-07-23T12:34:48;31.60;50.50
1165;DHT22;571;50.930;6.926;2022-07-23T12:37:29;31.90;54.40
1165;DHT22;571;50.930;6.926;2022-07-23T12:39:58;32.30;51.60
1165;DHT22;571;50.930;6.926;2022-07-23T12:42:24;32.30;47.90
1165;DHT22;571;50.930;6.926;2022-07-23T12:45:08;32.70;49.70
1165;DHT22;571;50.930;6.926;2022-07-23T12:47:57;32.90;48.20
1165;DHT22;571;50.930;6.926;2022-07-23T12:50:40;32.60;50.10
1165;DHT22;571;50.930;6.926;2022-07-23T12:53:09;32.10;48.20
1165;DHT22;571;50.930;6.926;2022-07-23T12:55:38;32.60;49.80
1165;DHT22;571;50.930;6.926;2022-07-23T12:58:08;32.60;51.10
1165;DHT22;571;50.930;6.926;2022-07-23T13:01:01;32.50;54.00
1165;DHT22;571;50.930;6.926;2022-07-23T13:03:31;32.90;48.80
1165;DHT22;571;50.930;6.926;2022-07-23T13:05:58;33.00;45.20
1165;DHT22;571;50.930;6.926;2022-07-23T13:08:27;33.30;45.00
1165;DHT22;571;50.930;6.926;2022-07-23T13:10:56;32.90;46.90
1165;DHT22;571;50.930;6.926;2022-07-23T13:13:24;33.00;45.00
1165;DHT22;571;50.930;6.926;2022-07-23T13:15:51;33.60;45.70
1165;DHT22;571;50.930;6.926;2022-07-23T13:18:19;33.90;46.50
1165;DHT22;571;50.930;6.926;2022-07-23T13:20:46;34.30;45.00
1165;DHT22;571;50.930;6.926;2022-07-23T13:23:14;34.20;45.80
1165;DHT22;571;50.930;6.926;2022-07-23T13:25:42;34.60;44.10
1165;DHT22;571;50.930;6.926;2022-07-23T13:28:10;34.50;46.30
1165;DHT22;571;50.930;6.926;2022-07-23T13:30:37;34.90;42.20
1165;DHT22;571;50.930;6.926;2022-07-23T13:33:04;34.80;42.60
1165;DHT22;571;50.930;6.926;2022-07-23T13:35:31;35.10;43.50
1165;DHT22;571;50.930;6.926;2022-07-23T13:37:58;34.30;43.70
1165;DHT22;571;50.930;6.926;2022-07-23T13:40:25;34.10;45.10
1165;DHT22;571;50.930;6.926;2022-07-23T13:42:52;34.10;44.00
1165;DHT22;571;50.930;6.926;2022-07-23T13:45:20;33.90;41.30
1165;DHT22;571;50.930;6.926;2022-07-23T13:47:47;34.00;42.80
1165;DHT22;571;50.930;6.926;2022-07-23T13:50:13;34.20;43.70
1165;DHT22;571;50.930;6.926;2022-07-23T13:52:41;34.70;40.00
1165;DHT22;571;50.930;6.926;2022-07-23T13:55:08;34.30;40.40
1165;DHT22;571;50.930;6.926;2022-07-23T13:57:35;34.40;42.40
1165;DHT22;571;50.930;6.926;2022-07-23T14:00:03;34.00;42.60
1165;DHT22;571;50.930;6.926;2022-07-23T14:02:32;34.60;43.20
1165;DHT22;571;50.930;6.926;2022-07-23T14:04:59;34.90;41.70
1165;DHT22;571;50.930;6.926;2022-07-23T14:07:26;35.40;41.00
1165;DHT22;571;50.930;6.926;2022-07-23T14:09:53;35.40;40.90
1165;DHT22;571;50.930;6.926;2022-07-23T14:12:20;34.70;41.00
1165;DHT22;571;50.930;6.926;2022-07-23T14:14:46;35.10;41.60
1165;DHT22;571;50.930;6.926;2022-07-23T14:17:13;34.60;40.10
1165;DHT22;571;50.930;6.926;2022-07-23T14:19:41;35.70;39.80
1165;DHT22;571;50.930;6.926;2022-07-23T14:22:08;35.20;38.40
1165;DHT22;571;50.930;6.926;2022-07-23T14:24:35;35.80;40.60
1165;DHT22;571;50.930;6.926;2022-07-23T14:27:03;35.60;38.70
1165;DHT22;571;50.930;6.926;2022-07-23T14:29:30;34.70;39.20
1165;DHT22;571;50.930;6.926;2022-07-23T14:31:57;34.60;39.00
1165;DHT22;571;50.930;6.926;2022-07-23T14:34:24;34.50;38.80
1165;DHT22;571;50.930;6.926;2022-07-23T14:36:53;34.50;37.60
1165;DHT22;571;50.930;6.926;2022-07-23T14:39:19;34.40;40.40
1165;DHT22;571;50.930;6.926;2022-07-23T14:41:46;34.80;39.40
1165;DHT22;571;50.930;6.926;2022-07-23T14:44:13;35.60;37.00
1165;DHT22;571;50.930;6.926;2022-07-23T14:46:40;35.90;39.40
1165;DHT22;571;50.930;6.926;2022-07-23T14:49:07;36.10;38.10
1165;DHT22;571;50.930;6.926;2022-07-23T14:51:33;35.40;39.50
1165;DHT22;571;50.930;6.926;2022-07-23T14:54:03;34.70;39.90
1165;DHT22;571;50.930;6.926;2022-07-23T14:56:30;34.60;42.50
1165;DHT22;571;50.930;6.926;2022-07-23T14:58:59;34.60;43.70
1165;DHT22;571;50.930;6.926;2022-07-23T15:01:25;35.10;40.30
1165;DHT22;571;50.930;6.926;2022-07-23T15:03:52;35.10;39.90
1165;DHT22;571;50.930;6.926;2022-07-23T15:06:19;35.30;37.70
1165;DHT22;571;50.930;6.926;2022-07-23T15:08:45;35.20;42.10
1165;DHT22;571;50.930;6.926;2022-07-23T15:11:13;35.70;39.00
1165;DHT22;571;50.930;6.926;2022-07-23T15:13:40;36.30;38.20
1165;DHT22;571;50.930;6.926;2022-07-23T15:16:07;36.80;38.70
1165;DHT22;571;50.930;6.926;2022-07-23T15:18:35;36.90;37.30
1165;DHT22;571;50.930;6.926;2022-07-23T15:21:02;36.40;38.10
1165;DHT22;571;50.930;6.926;2022-07-23T15:23:29;36.70;36.40
1165;DHT22;571;50.930;6.926;2022-07-23T15:25:57;36.80;37.10
1165;DHT22;571;50.930;6.926;2022-07-23T15:28:25;36.80;36.20
1165;DHT22;571;50.930;6.926;2022-07-23T15:30:52;36.70;35.50
1165;DHT22;571;50.930;6.926;2022-07-23T15:33:19;36.70;34.80
1165;DHT22;571;50.930;6.926;2022-07-23T15:35:46;36.20;35.90
1165;DHT22;571;50.930;6.926;2022-07-23T15:38:13;36.00;37.40
1165;DHT22;571;50.930;6.926;2022-07-23T15:40:39;36.10;36.20
1165;DHT22;571;50.930;6.926;2022-07-23T15:43:06;35.80;36.30
1165;DHT22;571;50.930;6.926;2022-07-23T15:45:34;35.70;38.70
1165;DHT22;571;50.930;6.926;2022-07-23T15:48:01;36.10;36.40
1165;DHT22;571;50.930;6.926;2022-07-23T15:50:28;35.90;36.10
1165;DHT22;571;50.930;6.926;2022-07-23T15:52:55;35.70;36.00
1165;DHT22;571;50.930;6.926;2022-07-23T15:55:22;35.10;36.50
1165;DHT22;571;50.930;6.926;2022-07-23T15:57:49;35.00;37.40
1165;DHT22;571;50.930;6.926;2022-07-23T16:00:16;34.90;38.20
1165;DHT22;571;50.930;6.926;2022-07-23T16:02:44;34.50;38.20
1165;DHT22;571;50.930;6.926;2022-07-23T16:05:11;34.30;38.70
1165;DHT22;571;50.930;6.926;2022-07-23T16:07:37;34.30;39.40
1165;DHT22;571;50.930;6.926;2022-07-23T16:10:05;34.50;40.30
1165;DHT22;571;50.930;6.926;2022-07-23T16:12:32;35.10;36.40
1165;DHT22;571;50.930;6.926;2022-07-23T16:14:59;35.10;38.70
1165;DHT22;571;50.930;6.926;2022-07-23T16:17:27;35.30;37.50
1165;DHT22;571;50.930;6.926;2022-07-23T16:19:56;35.40;37.30
1165;DHT22;571;50.930;6.926;2022-07-23T16:22:22;35.10;37.70
1165;DHT22;571;50.930;6.926;2022-07-23T16:24:49;35.30;37.20
1165;DHT22;571;50.930;6.926;2022-07-23T16:27:16;35.40;34.90
1165;DHT22;571;50.930;6.926;2022-07-23T16:29:43;35.00;38.10
1165;DHT22;571;50.930;6.926;2022-07-23T16:32:09;35.20;36.20
1165;DHT22;571;50.930;6.926;2022-07-23T16:34:36;34.60;38.20
1165;DHT22;571;50.930;6.926;2022-07-23T16:37:05;34.30;38.70
1165;DHT22;571;50.930;6.926;2022-07-23T16:39:34;34.30;36.10
1165;DHT22;571;50.930;6.926;2022-07-23T16:42:00;33.80;37.70
1165;DHT22;571;50.930;6.926;2022-07-23T16:44:27;33.40;40.10
1165;DHT22;571;50.930;6.926;2022-07-23T16:46:54;33.40;39.10
1165;DHT22;571;50.930;6.926;2022-07-23T16:49:21;33.30;38.80
1165;DHT22;571;50.930;6.926;2022-07-23T16:51:47;33.80;39.00
1165;DHT22;571;50.930;6.926;2022-07-23T16:54:15;33.50;38.80
1165;DHT22;571;50.930;6.926;2022-07-23T16:56:43;33.20;38.40
1165;DHT22;571;50.930;6.926;2022-07-23T16:59:09;33.50;38.00
1165;DHT22;571;50.930;6.926;2022-07-23T17:01:36;33.30;39.70
1165;DHT22;571;50.930;6.926;2022-07-23T17:04:03;33.30;39.90
1165;DHT22;571;50.930;6.926;2022-07-23T17:06:30;33.50;37.80
1165;DHT22;571;50.930;6.926;2022-07-23T17:08:58;32.70;40.50
1165;DHT22;571;50.930;6.926;2022-07-23T17:11:26;32.10;40.00
1165;DHT22;571;50.930;6.926;2022-07-23T17:13:53;31.60;41.70
1165;DHT22;571;50.930;6.926;2022-07-23T17:16:19;31.00;41.70
1165;DHT22;571;50.930;6.926;2022-07-23T17:18:46;30.60;41.20
1165;DHT22;571;50.930;6.926;2022-07-23T17:21:13;30.50;42.10
1165;DHT22;571;50.930;6.926;2022-07-23T17:23:40;30.50;41.70
1165;DHT22;571;50.930;6.926;2022-07-23T17:26:07;30.50;42.10
1165;DHT22;571;50.930;6.926;2022-07-23T17:28:35;30.40;42.40
1165;DHT22;571;50.930;6.926;2022-07-23T17:31:02;30.00;43.60
1165;DHT22;571;50.930;6.926;2022-07-23T17:33:28;29.70;44.60
1165;DHT22;571;50.930;6.926;2022-07-23T17:35:55;29.40;45.10
1165;DHT22;571;50.930;6.926;2022-07-23T17:38:22;29.20;44.80
1165;DHT22;571;50.930;6.926;2022-07-23T17:40:49;29.10;45.40
1165;DHT22;571;50.930;6.926;2022-07-23T17:43:16;29.20;45.60
1165;DHT22;571;50.930;6.926;2022-07-23T17:45:44;29.10;45.30
1165;DHT22;571;50.930;6.926;2022-07-23T17:48:12;29.10;44.80
1165;DHT22;571;50.930;6.926;2022-07-23T17:50:39;29.00;45.40
1165;DHT22;571;50.930;6.926;2022-07-23T17:53:05;28.70;45.30
1165;DHT22;571;50.930;6.926;2022-07-23T17:55:33;28.70;44.50
1165;DHT22;571;50.930;6.926;2022-07-23T17:57:59;28.70;45.20
1165;DHT22;571;50.930;6.926;2022-07-23T18:00:29;28.80;44.40
1165;DHT22;571;50.930;6.926;2022-07-23T18:02:58;28.80;44.30
1165;DHT22;571;50.930;6.926;2022-07-23T18:05:25;28.60;45.20
1165;DHT22;571;50.930;6.926;2022-07-23T18:07:52;28.50;45.40
1165;DHT22;571;50.930;6.926;2022-07-23T18:10:20;28.20;46.30
1165;DHT22;571;50.930;6.926;2022-07-23T18:12:47;27.90;46.90
1165;DHT22;571;50.930;6.926;2022-07-23T18:15:14;27.70;47.30
1165;DHT22;571;50.930;6.926;2022-07-23T18:17:41;27.50;48.30
1165;DHT22;571;50.930;6.926;2022-07-23T18:20:10;27.50;49.40
1165;DHT22;571;50.930;6.926;2022-07-23T18:22:37;27.40;49.20
1165;DHT22;571;50.930;6.926;2022-07-23T18:25:06;27.40;51.30
1165;DHT22;571;50.930;6.926;2022-07-23T18:27:33;27.30;49.30
1165;DHT22;571;50.930;6.926;2022-07-23T18:30:00;27.00;49.50
1165;DHT22;571;50.930;6.926;2022-07-23T18:32:27;27.00;49.80
1165;DHT22;571;50.930;6.926;2022-07-23T18:34:53;26.90;50.40
1165;DHT22;571;50.930;6.926;2022-07-23T18:37:22;26.80;50.50
1165;DHT22;571;50.930;6.926;2022-07-23T18:39:49;26.80;50.00
1165;DHT22;571;50.930;6.926;2022-07-23T18:42:16;26.70;52.60
1165;DHT22;571;50.930;6.926;2022-07-23T18:44:43;26.70;51.80
1165;DHT22;571;50.930;6.926;2022-07-23T18:47:10;26.60;52.20
1165;DHT22;571;50.930;6.926;2022-07-23T18:49:37;26.50;52.00
1165;DHT22;571;50.930;6.926;2022-07-23T18:52:04;26.40;53.60
1165;DHT22;571;50.930;6.926;2022-07-23T18:54:32;26.40;53.90
1165;DHT22;571;50.930;6.926;2022-07-23T18:56:59;26.40;52.60
1165;DHT22;571;50.930;6.926;2022-07-23T18:59:26;26.40;54.00
1165;DHT22;571;50.930;6.926;2022-07-23T19:01:53;26.30;54.00
1165;DHT22;571;50.930;6.926;2022-07-23T19:04:19;26.30;54.80
1165;DHT22;571;50.930;6.926;2022-07-23T19:06:47;26.20;54.30
1165;DHT22;571;50.930;6.926;2022-07-23T19:09:14;26.10;54.10
1165;DHT22;571;50.930;6.926;2022-07-23T19:11:42;26.00;54.90
1165;DHT22;571;50.930;6.926;2022-07-23T19:14:09;25.90;55.90
1165;DHT22;571;50.930;6.926;2022-07-23T19:16:35;25.90;56.20
1165;DHT22;571;50.930;6.926;2022-07-23T19:19:02;25.80;57.40
1165;DHT22;571;50.930;6.926;2022-07-23T19:21:29;25.60;57.40
1165;DHT22;571;50.930;6.926;2022-07-23T19:23:56;25.60;57.30
1165;DHT22;571;50.930;6.926;2022-07-23T19:26:23;25.50;57.00
1165;DHT22;571;50.930;6.926;2022-07-23T19:28:51;25.40;58.00
1165;DHT22;571;50.930;6.926;2022-07-23T19:31:19;25.30;58.70
1165;DHT22;571;50.930;6.926;2022-07-23T19:33:46;25.20;59.00
1165;DHT22;571;50.930;6.926;2022-07-23T19:36:13;25.10;60.00
1165;DHT22;571;50.930;6.926;2022-07-23T19:38:40;25.00;62.00
1165;DHT22;571;50.930;6.926;2022-07-23T19:41:07;25.00;61.70
1165;DHT22;571;50.930;6.926;2022-07-23T19:43:34;24.90;60.90
1165;DHT22;571;50.930;6.926;2022-07-23T19:46:02;24.90;62.60
1165;DHT22;571;50.930;6.926;2022-07-23T19:48:29;24.80;63.30
1165;DHT22;571;50.930;6.926;2022-07-23T19:50:56;24.80;64.30
1165;DHT22;571;50.930;6.926;2022-07-23T19:53:23;24.80;65.10
1165;DHT22;571;50.930;6.926;2022-07-23T19:55:50;24.80;65.00
1165;DHT22;571;50.930;6.926;2022-07-23T19:58:17;24.70;67.50
1165;DHT22;571;50.930;6.926;2022-07-23T20:00:43;24.60;66.80
1165;DHT22;571;50.930;6.926;2022-07-23T20:03:11;24.60;67.20
1165;DHT22;571;50.930;6.926;2022-07-23T20:05:38;24.50;67.90
1165;DHT22;571;50.930;6.926;2022-07-23T20:08:05;24.50;69.50
1165;DHT22;571;50.930;6.926;2022-07-23T20:10:32;24.40;70.50
1165;DHT22;571;50.930;6.926;2022-07-23T20:12:59;24.40;69.90
1165;DHT22;571;50.930;6.926;2022-07-23T20:15:25;24.40;70.00
1165;DHT22;571;50.930;6.926;2022-07-23T20:17:54;24.30;70.30
1165;DHT22;571;50.930;6.926;2022-07-23T20:20:22;24.20;72.70
1165;DHT22;571;50.930;6.926;2022-07-23T20:22:48;24.20;72.40
1165;DHT22;571;50.930;6.926;2022-07-23T20:25:15;24.10;72.20
1165;DHT22;571;50.930;6.926;2022-07-23T20:27:42;24.00;74.20
1165;DHT22;571;50.930;6.926;2022-07-23T20:30:09;24.00;73.80
1165;DHT22;571;50.930;6.926;2022-07-23T20:32:37;23.90;73.90
1165;DHT22;571;50.930;6.926;2022-07-23T20:35:04;23.90;74.50